South Miami, Florida
Current Conditions -  °F | °C
As of 11:53 AM on Sunday 23 Nov 2014 (Local Time) from KMIA Reporting Station
Broken Clouds Broken Clouds  
Wind Chill: 82°   Ceiling: 2200
Heat Index: 87°   Visibility: 10mi
Dew Point: 73°   Wind: 17mph
Humidity: 74%   Direction: 130°SE
Pressure: 30.01"   Gusts: 25mph
Location:  25.71°N, 80.3°W
Report Text: KMIA 231653Z 13015G22KT 10SM BKN022 28/23 A3001 RMK AO2 SLP161 T02780228
Loading
Personal Weather Stations






























Interactive Weather Map New forecast layout! Learn more

10-Day Weather Forecast

Advertisements
Track Severe Weather on mobile